sensor_id;sensor_type;location;lat;lon;timestamp;P1;durP1;ratioP1;P2;durP2;ratioP2
76348;SDS011;65172;46.764;15.406;2023-04-03T00:01:06;2.58;;;1.90;;
76348;SDS011;65172;46.764;15.406;2023-04-03T00:03:31;4.45;;;2.25;;
76348;SDS011;65172;46.764;15.406;2023-04-03T00:05:57;4.15;;;2.30;;
76348;SDS011;65172;46.764;15.406;2023-04-03T00:08:23;3.22;;;2.65;;
76348;SDS011;65172;46.764;15.406;2023-04-03T00:10:48;3.05;;;2.03;;
76348;SDS011;65172;46.764;15.406;2023-04-03T00:13:14;3.05;;;2.03;;
76348;SDS011;65172;46.764;15.406;2023-04-03T00:15:40;2.90;;;1.70;;
76348;SDS011;65172;46.764;15.406;2023-04-03T00:18:06;3.03;;;2.15;;
76348;SDS011;65172;46.764;15.406;2023-04-03T00:20:32;2.58;;;1.92;;
76348;SDS011;65172;46.764;15.406;2023-04-03T00:22:58;2.75;;;1.80;;
76348;SDS011;65172;46.764;15.406;2023-04-03T00:25:23;2.72;;;2.05;;
76348;SDS011;65172;46.764;15.406;2023-04-03T00:27:50;3.53;;;2.40;;
76348;SDS011;65172;46.764;15.406;2023-04-03T00:30:16;2.30;;;1.85;;
76348;SDS011;65172;46.764;15.406;2023-04-03T00:32:43;5.35;;;2.67;;
76348;SDS011;65172;46.764;15.406;2023-04-03T00:35:08;2.83;;;1.73;;
76348;SDS011;65172;46.764;15.406;2023-04-03T00:37:35;3.90;;;2.00;;
76348;SDS011;65172;46.764;15.406;2023-04-03T00:40:00;3.60;;;2.70;;
76348;SDS011;65172;46.764;15.406;2023-04-03T00:42:26;3.05;;;2.10;;
76348;SDS011;65172;46.764;15.406;2023-04-03T00:47:20;2.92;;;1.92;;
76348;SDS011;65172;46.764;15.406;2023-04-03T00:49:46;2.30;;;1.90;;
76348;SDS011;65172;46.764;15.406;2023-04-03T00:52:14;3.05;;;2.08;;
76348;SDS011;65172;46.764;15.406;2023-04-03T00:54:41;3.67;;;2.22;;
76348;SDS011;65172;46.764;15.406;2023-04-03T00:57:08;3.55;;;1.98;;
76348;SDS011;65172;46.764;15.406;2023-04-03T00:59:35;3.47;;;2.08;;
76348;SDS011;65172;46.764;15.406;2023-04-03T01:02:03;2.67;;;1.90;;
76348;SDS011;65172;46.764;15.406;2023-04-03T01:04:33;3.13;;;1.98;;
76348;SDS011;65172;46.764;15.406;2023-04-03T01:07:04;4.05;;;2.42;;
76348;SDS011;65172;46.764;15.406;2023-04-03T01:09:32;4.15;;;2.10;;
76348;SDS011;65172;46.764;15.406;2023-04-03T01:14:33;6.00;;;2.60;;
76348;SDS011;65172;46.764;15.406;2023-04-03T01:16:58;5.20;;;2.97;;
76348;SDS011;65172;46.764;15.406;2023-04-03T01:19:24;4.95;;;2.78;;
76348;SDS011;65172;46.764;15.406;2023-04-03T01:26:55;3.90;;;2.50;;
76348;SDS011;65172;46.764;15.406;2023-04-03T01:29:20;5.22;;;2.47;;
76348;SDS011;65172;46.764;15.406;2023-04-03T01:31:48;5.18;;;2.50;;
76348;SDS011;65172;46.764;15.406;2023-04-03T01:34:18;3.85;;;2.63;;
76348;SDS011;65172;46.764;15.406;2023-04-03T01:36:44;5.22;;;3.08;;
76348;SDS011;65172;46.764;15.406;2023-04-03T01:39:10;4.95;;;2.95;;
76348;SDS011;65172;46.764;15.406;2023-04-03T01:41:35;3.75;;;2.38;;
76348;SDS011;65172;46.764;15.406;2023-04-03T01:44:01;9.25;;;3.00;;
76348;SDS011;65172;46.764;15.406;2023-04-03T01:46:27;6.43;;;2.90;;
76348;SDS011;65172;46.764;15.406;2023-04-03T01:48:52;4.78;;;3.10;;
76348;SDS011;65172;46.764;15.406;2023-04-03T01:51:17;5.28;;;3.45;;
76348;SDS011;65172;46.764;15.406;2023-04-03T01:53:43;5.05;;;3.10;;
76348;SDS011;65172;46.764;15.406;2023-04-03T01:56:08;5.00;;;2.92;;
76348;SDS011;65172;46.764;15.406;2023-04-03T01:58:34;7.30;;;3.38;;
76348;SDS011;65172;46.764;15.406;2023-04-03T02:01:00;10.48;;;3.17;;
76348;SDS011;65172;46.764;15.406;2023-04-03T02:03:26;4.18;;;2.90;;
76348;SDS011;65172;46.764;15.406;2023-04-03T02:05:52;5.03;;;3.13;;
76348;SDS011;65172;46.764;15.406;2023-04-03T02:08:17;5.13;;;3.35;;
76348;SDS011;65172;46.764;15.406;2023-04-03T02:10:43;6.28;;;3.05;;
76348;SDS011;65172;46.764;15.406;2023-04-03T02:13:10;5.93;;;3.53;;
76348;SDS011;65172;46.764;15.406;2023-04-03T02:15:39;4.68;;;3.15;;
76348;SDS011;65172;46.764;15.406;2023-04-03T02:18:04;6.38;;;3.13;;
76348;SDS011;65172;46.764;15.406;2023-04-03T02:20:30;4.15;;;2.97;;
76348;SDS011;65172;46.764;15.406;2023-04-03T02:22:56;4.90;;;2.95;;
76348;SDS011;65172;46.764;15.406;2023-04-03T02:25:21;5.15;;;3.40;;
76348;SDS011;65172;46.764;15.406;2023-04-03T02:27:47;4.13;;;2.97;;
76348;SDS011;65172;46.764;15.406;2023-04-03T02:30:12;5.00;;;3.03;;
76348;SDS011;65172;46.764;15.406;2023-04-03T02:32:40;4.15;;;2.90;;
76348;SDS011;65172;46.764;15.406;2023-04-03T02:35:06;6.50;;;3.42;;
76348;SDS011;65172;46.764;15.406;2023-04-03T02:37:32;5.22;;;3.53;;
76348;SDS011;65172;46.764;15.406;2023-04-03T02:39:57;3.67;;;2.95;;
76348;SDS011;65172;46.764;15.406;2023-04-03T02:42:23;4.70;;;2.90;;
76348;SDS011;65172;46.764;15.406;2023-04-03T02:44:48;5.20;;;3.40;;
76348;SDS011;65172;46.764;15.406;2023-04-03T02:47:13;4.47;;;3.35;;
76348;SDS011;65172;46.764;15.406;2023-04-03T02:49:39;6.63;;;3.65;;
76348;SDS011;65172;46.764;15.406;2023-04-03T02:52:05;4.65;;;3.20;;
76348;SDS011;65172;46.764;15.406;2023-04-03T02:54:30;3.83;;;3.20;;
76348;SDS011;65172;46.764;15.406;2023-04-03T02:56:56;5.70;;;3.50;;
76348;SDS011;65172;46.764;15.406;2023-04-03T02:59:22;4.55;;;3.10;;
76348;SDS011;65172;46.764;15.406;2023-04-03T03:01:47;9.27;;;3.38;;
76348;SDS011;65172;46.764;15.406;2023-04-03T03:04:13;4.22;;;2.95;;
76348;SDS011;65172;46.764;15.406;2023-04-03T03:06:38;4.47;;;3.17;;
76348;SDS011;65172;46.764;15.406;2023-04-03T03:09:05;5.82;;;3.17;;
76348;SDS011;65172;46.764;15.406;2023-04-03T03:11:30;6.22;;;2.97;;
76348;SDS011;65172;46.764;15.406;2023-04-03T03:13:57;4.38;;;2.58;;
76348;SDS011;65172;46.764;15.406;2023-04-03T03:16:22;4.30;;;2.90;;
76348;SDS011;65172;46.764;15.406;2023-04-03T03:18:48;3.60;;;2.55;;
76348;SDS011;65172;46.764;15.406;2023-04-03T03:21:14;4.03;;;2.33;;
76348;SDS011;65172;46.764;15.406;2023-04-03T03:23:39;4.53;;;2.67;;
76348;SDS011;65172;46.764;15.406;2023-04-03T03:26:06;4.00;;;2.72;;
76348;SDS011;65172;46.764;15.406;2023-04-03T03:28:34;3.72;;;2.30;;
76348;SDS011;65172;46.764;15.406;2023-04-03T03:31:01;2.65;;;1.92;;
76348;SDS011;65172;46.764;15.406;2023-04-03T03:33:27;5.25;;;2.42;;
76348;SDS011;65172;46.764;15.406;2023-04-03T03:35:53;3.05;;;2.67;;
76348;SDS011;65172;46.764;15.406;2023-04-03T03:38:19;6.40;;;4.95;;
76348;SDS011;65172;46.764;15.406;2023-04-03T03:40:46;4.95;;;4.15;;
76348;SDS011;65172;46.764;15.406;2023-04-03T03:43:12;6.53;;;3.83;;
76348;SDS011;65172;46.764;15.406;2023-04-03T03:45:38;5.28;;;3.63;;
76348;SDS011;65172;46.764;15.406;2023-04-03T03:48:03;5.07;;;3.65;;
76348;SDS011;65172;46.764;15.406;2023-04-03T03:50:29;5.53;;;3.85;;
76348;SDS011;65172;46.764;15.406;2023-04-03T03:52:55;5.13;;;3.55;;
76348;SDS011;65172;46.764;15.406;2023-04-03T03:55:20;6.65;;;3.58;;
76348;SDS011;65172;46.764;15.406;2023-04-03T03:57:46;5.05;;;3.30;;
76348;SDS011;65172;46.764;15.406;2023-04-03T04:00:11;4.75;;;3.40;;
76348;SDS011;65172;46.764;15.406;2023-04-03T04:02:37;5.75;;;3.35;;
76348;SDS011;65172;46.764;15.406;2023-04-03T04:05:03;5.22;;;3.67;;
76348;SDS011;65172;46.764;15.406;2023-04-03T04:07:28;8.23;;;3.60;;
76348;SDS011;65172;46.764;15.406;2023-04-03T04:09:54;6.22;;;3.67;;
76348;SDS011;65172;46.764;15.406;2023-04-03T04:12:20;6.65;;;3.83;;
76348;SDS011;65172;46.764;15.406;2023-04-03T04:14:45;4.70;;;2.90;;
76348;SDS011;65172;46.764;15.406;2023-04-03T04:17:14;5.18;;;3.38;;
76348;SDS011;65172;46.764;15.406;2023-04-03T04:19:40;7.22;;;3.28;;
76348;SDS011;65172;46.764;15.406;2023-04-03T04:22:05;4.82;;;3.85;;
76348;SDS011;65172;46.764;15.406;2023-04-03T04:24:31;6.15;;;3.90;;
76348;SDS011;65172;46.764;15.406;2023-04-03T04:26:56;16.10;;;14.13;;
76348;SDS011;65172;46.764;15.406;2023-04-03T04:29:22;7.18;;;6.15;;
76348;SDS011;65172;46.764;15.406;2023-04-03T04:31:47;9.60;;;6.50;;
76348;SDS011;65172;46.764;15.406;2023-04-03T04:34:13;7.20;;;5.35;;
76348;SDS011;65172;46.764;15.406;2023-04-03T04:36:39;8.80;;;5.15;;
76348;SDS011;65172;46.764;15.406;2023-04-03T04:39:05;11.10;;;6.18;;
76348;SDS011;65172;46.764;15.406;2023-04-03T04:41:30;8.27;;;5.45;;
76348;SDS011;65172;46.764;15.406;2023-04-03T04:43:56;8.27;;;5.00;;
76348;SDS011;65172;46.764;15.406;2023-04-03T04:46:22;7.30;;;5.05;;
76348;SDS011;65172;46.764;15.406;2023-04-03T04:48:48;7.20;;;5.05;;
76348;SDS011;65172;46.764;15.406;2023-04-03T04:51:13;9.25;;;5.32;;
76348;SDS011;65172;46.764;15.406;2023-04-03T04:53:39;9.07;;;5.28;;
76348;SDS011;65172;46.764;15.406;2023-04-03T04:56:05;9.40;;;5.60;;
76348;SDS011;65172;46.764;15.406;2023-04-03T04:58:31;9.68;;;5.65;;
76348;SDS011;65172;46.764;15.406;2023-04-03T05:01:03;10.50;;;6.53;;
76348;SDS011;65172;46.764;15.406;2023-04-03T05:05:55;9.02;;;5.22;;
76348;SDS011;65172;46.764;15.406;2023-04-03T05:08:21;8.60;;;5.78;;
76348;SDS011;65172;46.764;15.406;2023-04-03T05:10:46;9.07;;;5.70;;
76348;SDS011;65172;46.764;15.406;2023-04-03T05:13:12;19.58;;;11.50;;
76348;SDS011;65172;46.764;15.406;2023-04-03T05:15:38;12.85;;;7.10;;
76348;SDS011;65172;46.764;15.406;2023-04-03T05:18:03;10.57;;;6.45;;
76348;SDS011;65172;46.764;15.406;2023-04-03T05:20:30;13.50;;;6.95;;
76348;SDS011;65172;46.764;15.406;2023-04-03T05:22:56;16.80;;;8.15;;
76348;SDS011;65172;46.764;15.406;2023-04-03T05:25:21;11.15;;;6.95;;
76348;SDS011;65172;46.764;15.406;2023-04-03T05:27:47;31.20;;;14.00;;
76348;SDS011;65172;46.764;15.406;2023-04-03T05:30:12;15.73;;;8.05;;
76348;SDS011;65172;46.764;15.406;2023-04-03T05:32:38;49.72;;;19.00;;
76348;SDS011;65172;46.764;15.406;2023-04-03T05:35:05;48.30;;;20.20;;
76348;SDS011;65172;46.764;15.406;2023-04-03T05:37:31;53.58;;;16.52;;
76348;SDS011;65172;46.764;15.406;2023-04-03T05:39:57;19.42;;;8.25;;
76348;SDS011;65172;46.764;15.406;2023-04-03T05:42:22;14.63;;;6.60;;
76348;SDS011;65172;46.764;15.406;2023-04-03T05:44:48;6.45;;;4.55;;
76348;SDS011;65172;46.764;15.406;2023-04-03T05:47:15;10.82;;;4.68;;
76348;SDS011;65172;46.764;15.406;2023-04-03T05:49:41;14.48;;;5.72;;
76348;SDS011;65172;46.764;15.406;2023-04-03T05:52:28;11.00;;;5.32;;
76348;SDS011;65172;46.764;15.406;2023-04-03T05:54:53;7.80;;;4.88;;
76348;SDS011;65172;46.764;15.406;2023-04-03T05:57:20;11.57;;;5.55;;
76348;SDS011;65172;46.764;15.406;2023-04-03T05:59:46;9.73;;;5.00;;
76348;SDS011;65172;46.764;15.406;2023-04-03T06:02:12;6.28;;;3.70;;
76348;SDS011;65172;46.764;15.406;2023-04-03T06:04:39;7.45;;;3.78;;
76348;SDS011;65172;46.764;15.406;2023-04-03T06:07:05;5.28;;;3.28;;
76348;SDS011;65172;46.764;15.406;2023-04-03T06:09:32;7.88;;;3.97;;
76348;SDS011;65172;46.764;15.406;2023-04-03T06:11:58;10.82;;;4.28;;
76348;SDS011;65172;46.764;15.406;2023-04-03T06:14:24;5.10;;;3.63;;
76348;SDS011;65172;46.764;15.406;2023-04-03T06:16:50;6.28;;;4.65;;
76348;SDS011;65172;46.764;15.406;2023-04-03T06:19:16;5.43;;;3.50;;
76348;SDS011;65172;46.764;15.406;2023-04-03T06:21:42;5.15;;;2.45;;
76348;SDS011;65172;46.764;15.406;2023-04-03T06:24:07;4.68;;;2.50;;
76348;SDS011;65172;46.764;15.406;2023-04-03T06:26:34;4.00;;;2.20;;
76348;SDS011;65172;46.764;15.406;2023-04-03T06:29:00;3.05;;;1.70;;
76348;SDS011;65172;46.764;15.406;2023-04-03T06:31:26;4.15;;;1.95;;
76348;SDS011;65172;46.764;15.406;2023-04-03T06:33:52;3.70;;;1.85;;
76348;SDS011;65172;46.764;15.406;2023-04-03T06:36:18;1.85;;;1.15;;
76348;SDS011;65172;46.764;15.406;2023-04-03T06:38:45;2.92;;;1.13;;
76348;SDS011;65172;46.764;15.406;2023-04-03T06:41:11;1.95;;;1.33;;
76348;SDS011;65172;46.764;15.406;2023-04-03T06:43:37;2.35;;;0.77;;
76348;SDS011;65172;46.764;15.406;2023-04-03T06:46:02;5.32;;;1.77;;
76348;SDS011;65172;46.764;15.406;2023-04-03T06:48:28;6.75;;;2.72;;
76348;SDS011;65172;46.764;15.406;2023-04-03T06:50:54;3.53;;;1.95;;
76348;SDS011;65172;46.764;15.406;2023-04-03T06:53:20;7.85;;;3.22;;
76348;SDS011;65172;46.764;15.406;2023-04-03T06:55:46;11.48;;;6.47;;
76348;SDS011;65172;46.764;15.406;2023-04-03T06:58:12;14.80;;;6.75;;
76348;SDS011;65172;46.764;15.406;2023-04-03T07:00:38;8.23;;;4.38;;
76348;SDS011;65172;46.764;15.406;2023-04-03T07:03:04;8.90;;;5.50;;
76348;SDS011;65172;46.764;15.406;2023-04-03T07:05:30;6.28;;;3.55;;
76348;SDS011;65172;46.764;15.406;2023-04-03T07:07:56;6.05;;;2.70;;
76348;SDS011;65172;46.764;15.406;2023-04-03T07:10:21;6.22;;;2.55;;
76348;SDS011;65172;46.764;15.406;2023-04-03T07:12:47;3.88;;;2.45;;
76348;SDS011;65172;46.764;15.406;2023-04-03T07:15:13;3.75;;;2.05;;
76348;SDS011;65172;46.764;15.406;2023-04-03T07:17:39;4.15;;;2.45;;
76348;SDS011;65172;46.764;15.406;2023-04-03T07:20:05;4.88;;;2.20;;
76348;SDS011;65172;46.764;15.406;2023-04-03T07:22:32;6.45;;;2.85;;
76348;SDS011;65172;46.764;15.406;2023-04-03T07:24:57;5.88;;;3.40;;
76348;SDS011;65172;46.764;15.406;2023-04-03T07:27:24;3.08;;;1.65;;
76348;SDS011;65172;46.764;15.406;2023-04-03T07:29:50;7.55;;;2.60;;
76348;SDS011;65172;46.764;15.406;2023-04-03T07:32:16;4.53;;;1.95;;
76348;SDS011;65172;46.764;15.406;2023-04-03T07:34:42;3.65;;;1.75;;
76348;SDS011;65172;46.764;15.406;2023-04-03T07:37:08;4.50;;;2.17;;
76348;SDS011;65172;46.764;15.406;2023-04-03T07:39:34;3.78;;;1.70;;
76348;SDS011;65172;46.764;15.406;2023-04-03T07:42:00;3.35;;;1.90;;
76348;SDS011;65172;46.764;15.406;2023-04-03T07:44:26;2.38;;;1.30;;
76348;SDS011;65172;46.764;15.406;2023-04-03T07:46:52;1.85;;;1.02;;
76348;SDS011;65172;46.764;15.406;2023-04-03T07:49:19;3.00;;;1.42;;
76348;SDS011;65172;46.764;15.406;2023-04-03T07:51:45;2.53;;;1.13;;
76348;SDS011;65172;46.764;15.406;2023-04-03T07:54:10;2.25;;;1.30;;
76348;SDS011;65172;46.764;15.406;2023-04-03T07:56:36;1.88;;;1.33;;
76348;SDS011;65172;46.764;15.406;2023-04-03T07:59:01;2.65;;;1.30;;
76348;SDS011;65172;46.764;15.406;2023-04-03T08:01:27;2.10;;;1.13;;
76348;SDS011;65172;46.764;15.406;2023-04-03T08:03:52;2.70;;;1.13;;
76348;SDS011;65172;46.764;15.406;2023-04-03T08:06:18;1.02;;;0.88;;
76348;SDS011;65172;46.764;15.406;2023-04-03T08:08:43;1.80;;;1.13;;
76348;SDS011;65172;46.764;15.406;2023-04-03T08:11:10;2.40;;;1.38;;
76348;SDS011;65172;46.764;15.406;2023-04-03T08:13:35;2.17;;;1.05;;
76348;SDS011;65172;46.764;15.406;2023-04-03T08:16:11;2.53;;;1.25;;
76348;SDS011;65172;46.764;15.406;2023-04-03T08:18:38;1.25;;;0.98;;
76348;SDS011;65172;46.764;15.406;2023-04-03T08:21:07;1.27;;;1.00;;
76348;SDS011;65172;46.764;15.406;2023-04-03T08:23:36;2.35;;;1.25;;
76348;SDS011;65172;46.764;15.406;2023-04-03T08:26:12;7.82;;;1.50;;
76348;SDS011;65172;46.764;15.406;2023-04-03T08:28:39;1.38;;;1.00;;
76348;SDS011;65172;46.764;15.406;2023-04-03T08:31:06;3.15;;;1.25;;
76348;SDS011;65172;46.764;15.406;2023-04-03T08:33:36;1.92;;;1.45;;
76348;SDS011;65172;46.764;15.406;2023-04-03T08:36:05;2.60;;;1.40;;
76348;SDS011;65172;46.764;15.406;2023-04-03T08:38:32;1.50;;;1.10;;
76348;SDS011;65172;46.764;15.406;2023-04-03T08:41:10;1.98;;;1.15;;
76348;SDS011;65172;46.764;15.406;2023-04-03T08:46:13;4.75;;;1.30;;
76348;SDS011;65172;46.764;15.406;2023-04-03T08:48:43;2.10;;;0.90;;
76348;SDS011;65172;46.764;15.406;2023-04-03T08:51:15;3.08;;;1.30;;
76348;SDS011;65172;46.764;15.406;2023-04-03T08:53:54;2.05;;;1.20;;
76348;SDS011;65172;46.764;15.406;2023-04-03T08:56:22;1.73;;;1.02;;
76348;SDS011;65172;46.764;15.406;2023-04-03T08:58:55;2.65;;;1.63;;
76348;SDS011;65172;46.764;15.406;2023-04-03T09:01:43;3.28;;;1.20;;
76348;SDS011;65172;46.764;15.406;2023-04-03T09:04:16;1.83;;;1.08;;
76348;SDS011;65172;46.764;15.406;2023-04-03T09:06:44;3.47;;;1.17;;
76348;SDS011;65172;46.764;15.406;2023-04-03T09:09:12;1.88;;;1.13;;
76348;SDS011;65172;46.764;15.406;2023-04-03T09:17:33;2.17;;;1.10;;
76348;SDS011;65172;46.764;15.406;2023-04-03T09:22:43;1.63;;;1.10;;
76348;SDS011;65172;46.764;15.406;2023-04-03T09:25:17;2.95;;;1.15;;
76348;SDS011;65172;46.764;15.406;2023-04-03T09:27:54;2.28;;;0.90;;
76348;SDS011;65172;46.764;15.406;2023-04-03T09:30:24;2.20;;;1.13;;
76348;SDS011;65172;46.764;15.406;2023-04-03T09:32:54;1.40;;;1.05;;
76348;SDS011;65172;46.764;15.406;2023-04-03T09:35:28;1.50;;;0.90;;
76348;SDS011;65172;46.764;15.406;2023-04-03T09:42:54;2.08;;;0.82;;
76348;SDS011;65172;46.764;15.406;2023-04-03T09:45:28;1.70;;;0.88;;
76348;SDS011;65172;46.764;15.406;2023-04-03T09:48:04;1.40;;;1.00;;
76348;SDS011;65172;46.764;15.406;2023-04-03T09:50:33;1.67;;;1.10;;
76348;SDS011;65172;46.764;15.406;2023-04-03T09:53:00;2.08;;;0.95;;
76348;SDS011;65172;46.764;15.406;2023-04-03T09:55:31;1.23;;;0.80;;
76348;SDS011;65172;46.764;15.406;2023-04-03T09:57:57;2.22;;;1.00;;
76348;SDS011;65172;46.764;15.406;2023-04-03T10:00:28;1.83;;;1.15;;
76348;SDS011;65172;46.764;15.406;2023-04-03T10:03:03;2.10;;;0.90;;
76348;SDS011;65172;46.764;15.406;2023-04-03T10:05:47;3.20;;;1.08;;
76348;SDS011;65172;46.764;15.406;2023-04-03T10:10:48;2.08;;;1.10;;
76348;SDS011;65172;46.764;15.406;2023-04-03T10:13:31;1.92;;;0.88;;
76348;SDS011;65172;46.764;15.406;2023-04-03T10:16:06;2.25;;;1.10;;
76348;SDS011;65172;46.764;15.406;2023-04-03T10:21:43;2.03;;;1.00;;
76348;SDS011;65172;46.764;15.406;2023-04-03T10:24:21;3.72;;;1.10;;
76348;SDS011;65172;46.764;15.406;2023-04-03T10:27:09;2.60;;;1.33;;
76348;SDS011;65172;46.764;15.406;2023-04-03T10:29:39;2.95;;;1.40;;
76348;SDS011;65172;46.764;15.406;2023-04-03T10:32:36;2.78;;;1.00;;
76348;SDS011;65172;46.764;15.406;2023-04-03T10:40:38;1.42;;;1.00;;
76348;SDS011;65172;46.764;15.406;2023-04-03T10:46:22;1.75;;;1.00;;
76348;SDS011;65172;46.764;15.406;2023-04-03T10:48:33;1.92;;;1.00;;
76348;SDS011;65172;46.764;15.406;2023-04-03T10:53:49;1.73;;;1.02;;
76348;SDS011;65172;46.764;15.406;2023-04-03T10:56:26;1.75;;;1.00;;
76348;SDS011;65172;46.764;15.406;2023-04-03T11:01:45;1.90;;;1.17;;
76348;SDS011;65172;46.764;15.406;2023-04-03T11:04:13;3.53;;;1.08;;
76348;SDS011;65172;46.764;15.406;2023-04-03T11:06:42;8.70;;;3.88;;
76348;SDS011;65172;46.764;15.406;2023-04-03T11:09:54;7.97;;;3.50;;
76348;SDS011;65172;46.764;15.406;2023-04-03T11:15:15;1.70;;;1.00;;
76348;SDS011;65172;46.764;15.406;2023-04-03T11:17:46;2.60;;;0.80;;
76348;SDS011;65172;46.764;15.406;2023-04-03T11:22:42;1.92;;;1.00;;
76348;SDS011;65172;46.764;15.406;2023-04-03T11:27:42;1.65;;;0.88;;
76348;SDS011;65172;46.764;15.406;2023-04-03T11:30:15;1.23;;;0.90;;
76348;SDS011;65172;46.764;15.406;2023-04-03T11:33:05;1.73;;;1.08;;
76348;SDS011;65172;46.764;15.406;2023-04-03T11:35:54;1.98;;;1.10;;
76348;SDS011;65172;46.764;15.406;2023-04-03T11:38:30;1.60;;;1.15;;
76348;SDS011;65172;46.764;15.406;2023-04-03T11:41:02;2.28;;;1.13;;
76348;SDS011;65172;46.764;15.406;2023-04-03T11:43:28;1.23;;;0.65;;
76348;SDS011;65172;46.764;15.406;2023-04-03T11:46:02;1.50;;;0.80;;
76348;SDS011;65172;46.764;15.406;2023-04-03T11:51:42;1.80;;;1.30;;
76348;SDS011;65172;46.764;15.406;2023-04-03T11:53:54;2.78;;;1.10;;
76348;SDS011;65172;46.764;15.406;2023-04-03T11:59:14;1.88;;;1.17;;
76348;SDS011;65172;46.764;15.406;2023-04-03T12:01:43;1.35;;;1.10;;
76348;SDS011;65172;46.764;15.406;2023-04-03T12:04:12;1.45;;;1.00;;
76348;SDS011;65172;46.764;15.406;2023-04-03T12:14:53;2.22;;;1.25;;
76348;SDS011;65172;46.764;15.406;2023-04-03T12:17:20;1.42;;;0.90;;
76348;SDS011;65172;46.764;15.406;2023-04-03T12:19:51;3.13;;;1.60;;
76348;SDS011;65172;46.764;15.406;2023-04-03T12:22:17;3.10;;;1.05;;
76348;SDS011;65172;46.764;15.406;2023-04-03T12:24:46;3.00;;;1.45;;
76348;SDS011;65172;46.764;15.406;2023-04-03T12:27:20;3.08;;;1.45;;
76348;SDS011;65172;46.764;15.406;2023-04-03T12:40:48;2.38;;;1.15;;
76348;SDS011;65172;46.764;15.406;2023-04-03T12:43:25;1.48;;;0.93;;
76348;SDS011;65172;46.764;15.406;2023-04-03T12:46:03;2.13;;;1.45;;
76348;SDS011;65172;46.764;15.406;2023-04-03T12:51:27;1.73;;;1.02;;
76348;SDS011;65172;46.764;15.406;2023-04-03T12:54:02;1.80;;;1.20;;
76348;SDS011;65172;46.764;15.406;2023-04-03T12:56:31;3.08;;;1.92;;
76348;SDS011;65172;46.764;15.406;2023-04-03T13:01:41;3.42;;;1.80;;
76348;SDS011;65172;46.764;15.406;2023-04-03T13:04:09;2.13;;;1.27;;
76348;SDS011;65172;46.764;15.406;2023-04-03T13:06:40;2.05;;;1.20;;
76348;SDS011;65172;46.764;15.406;2023-04-03T13:09:17;2.47;;;1.40;;
76348;SDS011;65172;46.764;15.406;2023-04-03T13:12:01;2.70;;;1.30;;
76348;SDS011;65172;46.764;15.406;2023-04-03T13:14:29;1.45;;;1.13;;
76348;SDS011;65172;46.764;15.406;2023-04-03T13:19:22;2.17;;;1.15;;
76348;SDS011;65172;46.764;15.406;2023-04-03T13:21:49;2.22;;;1.20;;
76348;SDS011;65172;46.764;15.406;2023-04-03T13:24:38;2.78;;;1.27;;
76348;SDS011;65172;46.764;15.406;2023-04-03T13:27:04;2.70;;;1.40;;
76348;SDS011;65172;46.764;15.406;2023-04-03T13:29:32;2.28;;;1.30;;
76348;SDS011;65172;46.764;15.406;2023-04-03T13:32:00;1.77;;;1.02;;
76348;SDS011;65172;46.764;15.406;2023-04-03T13:34:35;2.63;;;1.17;;
76348;SDS011;65172;46.764;15.406;2023-04-03T13:37:03;2.67;;;1.10;;
76348;SDS011;65172;46.764;15.406;2023-04-03T13:39:30;2.35;;;1.10;;
76348;SDS011;65172;46.764;15.406;2023-04-03T13:41:58;2.80;;;0.90;;
76348;SDS011;65172;46.764;15.406;2023-04-03T13:47:00;3.20;;;1.20;;
76348;SDS011;65172;46.764;15.406;2023-04-03T13:49:44;2.67;;;1.42;;
76348;SDS011;65172;46.764;15.406;2023-04-03T13:54:47;3.70;;;1.20;;
76348;SDS011;65172;46.764;15.406;2023-04-03T13:57:14;2.35;;;1.05;;
76348;SDS011;65172;46.764;15.406;2023-04-03T13:59:40;2.58;;;1.40;;
76348;SDS011;65172;46.764;15.406;2023-04-03T14:02:10;1.80;;;1.40;;
76348;SDS011;65172;46.764;15.406;2023-04-03T14:07:13;2.78;;;1.25;;
76348;SDS011;65172;46.764;15.406;2023-04-03T14:09:39;2.50;;;1.55;;
76348;SDS011;65172;46.764;15.406;2023-04-03T14:12:06;3.50;;;1.40;;
76348;SDS011;65172;46.764;15.406;2023-04-03T14:14:37;3.22;;;1.33;;
76348;SDS011;65172;46.764;15.406;2023-04-03T14:17:10;2.40;;;1.23;;
76348;SDS011;65172;46.764;15.406;2023-04-03T14:19:39;2.55;;;1.40;;
76348;SDS011;65172;46.764;15.406;2023-04-03T14:22:16;4.43;;;1.52;;
76348;SDS011;65172;46.764;15.406;2023-04-03T14:24:53;3.25;;;1.55;;
76348;SDS011;65172;46.764;15.406;2023-04-03T14:27:26;2.40;;;1.42;;
76348;SDS011;65172;46.764;15.406;2023-04-03T14:29:54;3.95;;;1.90;;
76348;SDS011;65172;46.764;15.406;2023-04-03T14:32:21;3.05;;;1.52;;
76348;SDS011;65172;46.764;15.406;2023-04-03T14:34:48;2.95;;;1.35;;
76348;SDS011;65172;46.764;15.406;2023-04-03T14:37:17;3.22;;;1.50;;
76348;SDS011;65172;46.764;15.406;2023-04-03T14:39:44;2.33;;;1.30;;
76348;SDS011;65172;46.764;15.406;2023-04-03T14:42:15;3.65;;;1.60;;
76348;SDS011;65172;46.764;15.406;2023-04-03T14:44:42;3.97;;;1.60;;
76348;SDS011;65172;46.764;15.406;2023-04-03T14:47:15;2.33;;;1.52;;
76348;SDS011;65172;46.764;15.406;2023-04-03T14:49:42;2.22;;;1.30;;
76348;SDS011;65172;46.764;15.406;2023-04-03T14:52:24;2.15;;;1.20;;
76348;SDS011;65172;46.764;15.406;2023-04-03T14:54:52;2.35;;;1.52;;
76348;SDS011;65172;46.764;15.406;2023-04-03T14:57:18;2.58;;;1.50;;
76348;SDS011;65172;46.764;15.406;2023-04-03T14:59:44;2.40;;;1.08;;
76348;SDS011;65172;46.764;15.406;2023-04-03T15:04:47;3.22;;;1.58;;
76348;SDS011;65172;46.764;15.406;2023-04-03T15:07:13;3.20;;;1.38;;
76348;SDS011;65172;46.764;15.406;2023-04-03T15:09:38;2.45;;;1.08;;
76348;SDS011;65172;46.764;15.406;2023-04-03T15:12:04;1.35;;;1.00;;
76348;SDS011;65172;46.764;15.406;2023-04-03T15:14:29;2.38;;;1.77;;
76348;SDS011;65172;46.764;15.406;2023-04-03T15:16:54;2.83;;;1.65;;
76348;SDS011;65172;46.764;15.406;2023-04-03T15:19:20;2.08;;;1.63;;
76348;SDS011;65172;46.764;15.406;2023-04-03T15:21:46;5.80;;;1.40;;
76348;SDS011;65172;46.764;15.406;2023-04-03T15:24:11;3.97;;;1.67;;
76348;SDS011;65172;46.764;15.406;2023-04-03T15:26:36;2.08;;;1.60;;
76348;SDS011;65172;46.764;15.406;2023-04-03T15:29:03;3.80;;;1.23;;
76348;SDS011;65172;46.764;15.406;2023-04-03T15:31:29;2.97;;;1.70;;
76348;SDS011;65172;46.764;15.406;2023-04-03T15:33:54;3.60;;;1.85;;
76348;SDS011;65172;46.764;15.406;2023-04-03T15:36:20;3.95;;;1.80;;
76348;SDS011;65172;46.764;15.406;2023-04-03T15:38:45;2.95;;;1.60;;
76348;SDS011;65172;46.764;15.406;2023-04-03T15:41:11;2.33;;;1.50;;
76348;SDS011;65172;46.764;15.406;2023-04-03T15:43:37;3.55;;;1.80;;
76348;SDS011;65172;46.764;15.406;2023-04-03T15:46:03;4.63;;;2.28;;
76348;SDS011;65172;46.764;15.406;2023-04-03T15:48:29;2.47;;;1.80;;
76348;SDS011;65172;46.764;15.406;2023-04-03T15:50:55;3.78;;;2.20;;
76348;SDS011;65172;46.764;15.406;2023-04-03T15:53:20;4.20;;;2.33;;
76348;SDS011;65172;46.764;15.406;2023-04-03T15:55:46;3.00;;;1.80;;
76348;SDS011;65172;46.764;15.406;2023-04-03T15:58:11;3.70;;;1.65;;
76348;SDS011;65172;46.764;15.406;2023-04-03T16:00:37;2.47;;;1.70;;
76348;SDS011;65172;46.764;15.406;2023-04-03T16:03:04;3.63;;;1.92;;
76348;SDS011;65172;46.764;15.406;2023-04-03T16:05:31;4.68;;;2.25;;
76348;SDS011;65172;46.764;15.406;2023-04-03T16:07:57;4.03;;;2.60;;
76348;SDS011;65172;46.764;15.406;2023-04-03T16:10:24;3.40;;;2.03;;
76348;SDS011;65172;46.764;15.406;2023-04-03T16:12:50;2.72;;;1.80;;
76348;SDS011;65172;46.764;15.406;2023-04-03T16:15:15;3.08;;;1.60;;
76348;SDS011;65172;46.764;15.406;2023-04-03T16:17:41;3.88;;;1.90;;